Time;durP1;ratioP1;P1;durP2;ratioP2;P2;SDS_P1;SDS_P2;PMS_P1;PMS_P2;Temp;Humidity;BMP_temperature;BMP_pressure;BME280_temperature;BME280_humidity;BME280_pressure;Samples;Min_cycle;Max_cycle;Signal;HPM_P1;HPM_P2
2021/10/04 00:02:07;;;;;;;2.38;2.20;;;18.50;91.90;;;;;;5025736;28;20063;-70
2021/10/04 00:04:32;;;;;;;0.57;0.50;;;18.50;92.40;;;;;;5026384;28;20033;-70
2021/10/04 00:06:58;;;;;;;1.52;1.42;;;18.50;92.20;;;;;;5023604;28;20024;-71
2021/10/04 00:09:24;;;;;;;1.33;1.08;;;18.50;92.30;;;;;;5032571;28;20395;-70
2021/10/04 00:11:50;;;;;;;0.88;0.85;;;18.50;92.50;;;;;;5038338;28;20131;-71
2021/10/04 00:14:15;;;;;;;1.52;1.42;;;18.40;92.60;;;;;;5039829;28;20100;-70
2021/10/04 00:16:41;;;;;;;2.58;2.38;;;18.50;92.90;;;;;;5026698;28;20049;-71
2021/10/04 00:19:06;;;;;;;4.60;1.95;;;18.50;92.90;;;;;;5030681;28;20041;-70
2021/10/04 00:21:32;;;;;;;2.45;1.88;;;18.50;93.00;;;;;;5037915;28;20021;-70
2021/10/04 00:23:57;;;;;;;1.48;1.17;;;18.40;93.10;;;;;;5038534;28;20388;-70
2021/10/04 00:26:23;;;;;;;1.70;1.58;;;18.50;93.30;;;;;;5033363;28;20120;-70
2021/10/04 00:28:48;;;;;;;3.58;2.13;;;18.50;93.40;;;;;;5031030;28;20033;-70
2021/10/04 00:31:14;;;;;;;1.23;0.98;;;18.50;93.40;;;;;;5018791;28;20108;-70
2021/10/04 00:33:40;;;;;;;3.20;1.27;;;18.40;94.00;;;;;;5029887;28;20109;-71
2021/10/04 00:36:06;;;;;;;0.90;0.80;;;18.40;93.80;;;;;;5034491;28;20660;-71
2021/10/04 00:38:32;;;;;;;2.30;1.67;;;18.40;94.10;;;;;;5031510;28;20044;-71
2021/10/04 00:40:57;;;;;;;4.10;1.13;;;18.40;94.20;;;;;;5028805;28;20037;-71
2021/10/04 00:43:23;;;;;;;2.17;1.45;;;18.40;94.40;;;;;;5034017;28;20022;-70
2021/10/04 00:45:50;;;;;;;2.38;1.63;;;18.40;94.50;;;;;;5025283;28;20522;-70
2021/10/04 00:48:15;;;;;;;2.65;2.15;;;18.40;94.80;;;;;;5029171;28;20030;-70
2021/10/04 00:50:41;;;;;;;2.50;1.10;;;18.30;95.00;;;;;;5037070;28;20032;-70
2021/10/04 00:53:07;;;;;;;2.28;0.95;;;18.40;95.20;;;;;;5020487;28;20034;-71
2021/10/04 00:55:33;;;;;;;1.75;1.38;;;18.30;95.40;;;;;;5031857;28;20025;-71
2021/10/04 00:57:59;;;;;;;1.25;1.08;;;18.30;95.60;;;;;;5027195;28;20128;-70
2021/10/04 01:00:28;;;;;;;1.25;1.15;;;18.30;95.80;;;;;;5024492;28;20051;-71
2021/10/04 01:02:54;;;;;;;1.02;0.65;;;18.30;96.00;;;;;;5025923;28;20487;-70
2021/10/04 01:05:19;;;;;;;3.72;2.33;;;18.30;96.20;;;;;;5036096;28;20108;-70
2021/10/04 01:07:45;;;;;;;5.22;2.45;;;18.30;96.30;;;;;;5037002;28;20391;-70
2021/10/04 01:10:12;;;;;;;1.85;1.30;;;18.30;96.60;;;;;;5040911;28;20069;-70
2021/10/04 01:12:40;;;;;;;1.85;1.58;;;18.30;97.00;;;;;;5025806;28;20030;-71
2021/10/04 01:15:07;;;;;;;2.00;1.42;;;18.20;97.60;;;;;;5025825;28;20037;-70
2021/10/04 01:17:32;;;;;;;1.67;1.25;;;18.20;98.10;;;;;;5034620;28;20037;-70
2021/10/04 01:19:58;;;;;;;2.97;1.27;;;18.20;98.50;;;;;;5038373;28;20088;-71
2021/10/04 01:22:24;;;;;;;3.03;2.10;;;18.20;98.90;;;;;;5025591;28;20021;-71
2021/10/04 01:24:49;;;;;;;1.48;1.23;;;18.20;99.50;;;;;;5027635;28;20161;-71
2021/10/04 01:27:18;;;;;;;1.20;1.10;;;18.10;99.70;;;;;;5035895;28;20075;-70
2021/10/04 01:29:43;;;;;;;0.85;0.82;;;18.10;99.90;;;;;;5031499;28;20083;-70
2021/10/04 01:32:09;;;;;;;0.50;0.50;;;18.10;99.90;;;;;;5027627;28;20025;-70
2021/10/04 01:34:34;;;;;;;2.40;0.82;;;18.00;99.90;;;;;;5029234;28;20141;-71
2021/10/04 01:37:00;;;;;;;2.35;1.08;;;18.00;99.90;;;;;;5032139;28;20510;-70
2021/10/04 01:39:25;;;;;;;2.45;1.13;;;18.00;99.90;;;;;;5034052;28;20076;-70
2021/10/04 01:41:51;;;;;;;0.63;0.63;;;18.00;99.90;;;;;;5027867;28;20109;-70
2021/10/04 01:44:16;;;;;;;0.70;0.70;;;18.00;99.90;;;;;;5031083;28;20441;-71
2021/10/04 01:46:42;;;;;;;0.77;0.50;;;17.90;99.90;;;;;;5040197;28;20100;-71
2021/10/04 01:49:08;;;;;;;2.00;0.85;;;17.90;99.90;;;;;;5041344;28;20471;-71
2021/10/04 01:51:34;;;;;;;0.40;0.40;;;17.90;99.90;;;;;;5029636;28;20021;-71
2021/10/04 01:53:59;;;;;;;1.35;0.52;;;17.90;99.90;;;;;;5026827;28;20079;-70
2021/10/04 01:56:25;;;;;;;1.10;0.90;;;17.90;99.90;;;;;;5031350;28;20033;-71
2021/10/04 01:58:50;;;;;;;1.77;1.35;;;17.90;99.90;;;;;;5030065;28;20045;-71
2021/10/04 02:01:16;;;;;;;0.25;0.25;;;17.80;99.90;;;;;;5027606;28;20033;-71
2021/10/04 02:03:41;;;;;;;0.60;0.55;;;17.80;99.90;;;;;;5027937;28;20032;-71
2021/10/04 02:06:07;;;;;;;0.60;0.60;;;17.80;99.90;;;;;;5036838;28;20059;-71
2021/10/04 02:08:32;;;;;;;0.43;0.43;;;17.80;99.90;;;;;;5031190;28;20028;-72
2021/10/04 02:10:58;;;;;;;0.40;0.40;;;17.80;99.90;;;;;;5032454;28;20033;-71
2021/10/04 02:13:24;;;;;;;4.70;1.08;;;17.70;99.90;;;;;;5045688;28;20393;-72
2021/10/04 02:15:50;;;;;;;0.80;0.68;;;17.70;99.90;;;;;;5038663;28;20464;-71
2021/10/04 02:18:15;;;;;;;0.10;0.10;;;17.70;99.90;;;;;;5033610;28;20025;-72
2021/10/04 02:20:43;;;;;;;0.30;0.30;;;17.60;99.90;;;;;;5033804;28;20045;-72
2021/10/04 02:23:10;;;;;;;0.55;0.55;;;17.60;99.90;;;;;;5024473;28;20059;-72
2021/10/04 02:25:44;;;;;;;0.93;0.77;;;17.60;99.90;;;;;;5022898;28;20021;-72
2021/10/04 02:28:11;;;;;;;0.20;0.20;;;17.60;99.90;;;;;;5028164;28;20033;-72
2021/10/04 02:30:38;;;;;;;0.65;0.65;;;17.50;99.90;;;;;;5032231;28;20039;-72
2021/10/04 02:33:05;;;;;;;0.70;0.55;;;17.50;99.90;;;;;;5028114;28;20103;-71
2021/10/04 02:35:31;;;;;;;0.30;0.10;;;17.50;99.90;;;;;;5035773;28;20040;-71
2021/10/04 02:37:57;;;;;;;0.20;0.20;;;17.50;99.90;;;;;;5031839;28;20044;-71
2021/10/04 02:40:23;;;;;;;0.30;0.30;;;17.40;99.90;;;;;;5035534;28;20029;-72
2021/10/04 02:42:50;;;;;;;0.22;0.22;;;17.40;99.90;;;;;;5028863;28;20112;-72
2021/10/04 02:45:18;;;;;;;0.85;0.45;;;17.40;99.90;;;;;;5033350;28;20095;-72
2021/10/04 02:47:49;;;;;;;0.50;0.50;;;17.40;99.90;;;;;;5028194;28;20021;-71
2021/10/04 02:50:18;;;;;;;1.98;0.20;;;17.40;99.90;;;;;;5032134;28;20034;-71
2021/10/04 02:52:43;;;;;;;0.20;0.17;;;17.40;99.90;;;;;;5034956;28;20033;-71
2021/10/04 02:55:09;;;;;;;0.20;0.20;;;17.40;99.90;;;;;;5044468;28;20082;-72
2021/10/04 02:57:35;;;;;;;0.38;0.35;;;17.40;99.90;;;;;;5031302;28;20454;-72
2021/10/04 03:00:01;;;;;;;0.20;0.03;;;17.30;99.90;;;;;;5025315;28;20557;-72
2021/10/04 03:02:27;;;;;;;0.10;0.10;;;17.30;99.90;;;;;;5033182;28;20124;-72
2021/10/04 03:04:52;;;;;;;5.03;0.70;;;17.30;99.90;;;;;;5023453;28;20117;-71
2021/10/04 03:07:18;;;;;;;0.08;0.08;;;17.20;99.90;;;;;;5031151;28;20086;-72
2021/10/04 03:09:43;;;;;;;0.50;0.50;;;17.20;99.90;;;;;;5025145;28;20037;-72
2021/10/04 03:12:09;;;;;;;0.00;0.00;;;17.10;99.90;;;;;;5038248;28;20550;-72
2021/10/04 03:14:35;;;;;;;0.00;0.00;;;17.10;99.90;;;;;;5040394;28;20021;-72
2021/10/04 03:17:01;;;;;;;0.15;0.10;;;17.10;99.90;;;;;;5033949;28;20039;-72
2021/10/04 03:19:27;;;;;;;0.00;0.00;;;17.10;99.90;;;;;;5037853;28;20052;-72
2021/10/04 03:21:53;;;;;;;0.00;0.00;;;17.10;99.90;;;;;;5034623;28;20391;-72
2021/10/04 03:24:18;;;;;;;0.10;0.00;;;17.00;99.90;;;;;;5027362;28;20030;-72
2021/10/04 03:26:44;;;;;;;0.32;0.32;;;17.00;99.90;;;;;;5038088;28;20100;-72
2021/10/04 03:29:10;;;;;;;0.00;0.00;;;17.00;99.90;;;;;;5028381;28;20025;-71
2021/10/04 03:31:37;;;;;;;0.00;0.00;;;17.00;99.90;;;;;;5031003;28;20013;-72
2021/10/04 03:34:02;;;;;;;0.30;0.10;;;17.00;99.90;;;;;;5034502;28;20038;-71
2021/10/04 03:36:28;;;;;;;0.05;0.05;;;16.90;99.90;;;;;;5024230;28;20037;-71
2021/10/04 03:38:54;;;;;;;0.25;0.25;;;16.80;99.90;;;;;;5021047;28;20118;-71
2021/10/04 03:41:20;;;;;;;0.00;0.00;;;16.80;99.90;;;;;;5020826;28;20134;-71
2021/10/04 03:43:45;;;;;;;0.00;0.00;;;16.70;99.90;;;;;;5024836;28;20026;-71
2021/10/04 03:46:11;;;;;;;0.00;0.00;;;16.70;99.90;;;;;;5039690;28;20036;-71
2021/10/04 03:48:36;;;;;;;0.00;0.00;;;16.70;99.90;;;;;;5031535;28;20036;-71
2021/10/04 03:51:02;;;;;;;0.00;0.00;;;16.70;99.90;;;;;;5026570;28;20691;-71
2021/10/04 03:53:28;;;;;;;0.00;0.00;;;16.60;99.90;;;;;;5028070;28;20048;-72
2021/10/04 03:55:53;;;;;;;0.00;0.00;;;16.60;99.90;;;;;;5033196;28;20029;-71
2021/10/04 03:58:19;;;;;;;0.00;0.00;;;16.60;99.90;;;;;;5030141;28;20742;-71
2021/10/04 04:00:44;;;;;;;0.00;0.00;;;16.60;99.90;;;;;;5035432;28;20033;-71
2021/10/04 04:03:10;;;;;;;0.00;0.00;;;16.50;99.90;;;;;;5036183;28;20104;-71
2021/10/04 04:05:35;;;;;;;0.13;0.10;;;16.50;99.90;;;;;;5027265;28;20017;-71
2021/10/04 04:08:00;;;;;;;0.00;0.00;;;16.50;99.90;;;;;;5030782;28;20083;-71
2021/10/04 04:10:26;;;;;;;0.00;0.00;;;16.50;99.90;;;;;;5032857;28;20423;-71
2021/10/04 04:12:52;;;;;;;0.20;0.20;;;16.50;99.90;;;;;;5029706;28;20029;-71
2021/10/04 04:15:17;;;;;;;0.20;0.20;;;16.50;99.90;;;;;;5025479;28;20084;-72
2021/10/04 04:17:43;;;;;;;0.05;0.05;;;16.50;99.90;;;;;;5029982;28;20565;-71
2021/10/04 04:20:09;;;;;;;0.00;0.00;;;16.40;99.90;;;;;;5024107;28;20061;-74
2021/10/04 04:22:35;;;;;;;0.00;0.00;;;16.40;99.90;;;;;;5040579;28;20047;-75
2021/10/04 04:25:01;;;;;;;0.10;0.10;;;16.40;99.90;;;;;;5027142;28;20036;-75
2021/10/04 04:27:27;;;;;;;0.00;0.00;;;16.40;99.90;;;;;;5032468;28;20013;-75
2021/10/04 04:29:53;;;;;;;0.00;0.00;;;16.40;99.90;;;;;;5028232;28;20029;-75
2021/10/04 04:32:19;;;;;;;0.00;0.00;;;16.40;99.90;;;;;;5031738;28;20469;-75
2021/10/04 04:34:44;;;;;;;0.00;0.00;;;16.30;99.90;;;;;;5027937;28;20086;-72
2021/10/04 04:37:11;;;;;;;0.00;0.00;;;16.30;99.90;;;;;;5024149;28;20032;-73
2021/10/04 04:39:37;;;;;;;0.00;0.00;;;16.30;99.90;;;;;;5026032;28;20515;-73
2021/10/04 04:42:12;;;;;;;0.28;0.28;;;16.30;99.90;;;;;;5032559;28;20034;-73
2021/10/04 04:44:37;;;;;;;0.00;0.00;;;16.30;99.90;;;;;;5025652;28;20031;-72
2021/10/04 04:47:03;;;;;;;0.00;0.00;;;16.20;99.90;;;;;;5024197;28;20472;-73
2021/10/04 04:49:29;;;;;;;0.08;0.08;;;16.30;99.90;;;;;;5032944;28;20022;-72
2021/10/04 04:51:59;;;;;;;0.00;0.00;;;16.20;99.90;;;;;;5027394;28;20040;-73
2021/10/04 04:54:26;;;;;;;0.00;0.00;;;16.20;99.90;;;;;;5031711;28;20484;-73
2021/10/04 04:56:55;;;;;;;0.00;0.00;;;16.20;99.90;;;;;;5026886;28;20195;-73
2021/10/04 04:59:22;;;;;;;0.03;0.03;;;16.20;99.90;;;;;;5021470;28;20111;-73
2021/10/04 05:01:48;;;;;;;0.00;0.00;;;16.20;99.90;;;;;;5031457;28;20029;-73
2021/10/04 05:04:13;;;;;;;0.00;0.00;;;16.20;99.90;;;;;;5038201;28;20499;-74
2021/10/04 05:06:39;;;;;;;0.10;0.10;;;16.20;99.90;;;;;;5027862;28;20036;-72
2021/10/04 05:09:25;;;;;;;0.00;0.00;;;16.20;99.90;;;;;;5023825;28;20026;-73
2021/10/04 05:11:50;;;;;;;0.00;0.00;;;16.10;99.90;;;;;;5027584;28;20686;-72
2021/10/04 05:14:16;;;;;;;0.00;0.00;;;16.10;99.90;;;;;;5027189;28;20036;-72
2021/10/04 05:16:41;;;;;;;0.20;0.20;;;16.10;99.90;;;;;;5029760;28;20026;-74
2021/10/04 05:19:07;;;;;;;0.25;0.25;;;16.10;99.90;;;;;;5030951;28;20045;-73
2021/10/04 05:21:33;;;;;;;0.10;0.10;;;16.00;99.90;;;;;;5034259;28;20025;-74
2021/10/04 05:23:59;;;;;;;0.00;0.00;;;16.00;99.90;;;;;;5036292;28;20025;-74
2021/10/04 05:26:25;;;;;;;0.00;0.00;;;16.00;99.90;;;;;;5035166;28;20079;-73
2021/10/04 05:28:50;;;;;;;0.00;0.00;;;16.00;99.90;;;;;;5032733;28;20034;-72
2021/10/04 05:31:15;;;;;;;0.10;0.10;;;16.00;99.90;;;;;;5037467;28;20094;-73
2021/10/04 05:33:41;;;;;;;0.03;0.03;;;16.00;99.90;;;;;;5030066;28;20064;-73
2021/10/04 05:36:06;;;;;;;0.00;0.00;;;16.10;99.90;;;;;;5034892;28;20486;-73
2021/10/04 05:38:32;;;;;;;0.45;0.10;;;16.10;99.90;;;;;;5034898;28;20056;-73
2021/10/04 05:40:58;;;;;;;0.10;0.05;;;16.10;99.90;;;;;;5030207;28;20040;-75
2021/10/04 05:43:24;;;;;;;0.00;0.00;;;16.10;99.90;;;;;;5023782;28;20080;-74
2021/10/04 05:45:49;;;;;;;0.00;0.00;;;16.10;99.90;;;;;;5033138;28;20071;-72
2021/10/04 05:48:15;;;;;;;0.00;0.00;;;16.10;99.90;;;;;;5031966;28;20021;-72
2021/10/04 05:50:41;;;;;;;0.22;0.22;;;16.00;99.90;;;;;;5030076;28;20033;-72
2021/10/04 05:53:06;;;;;;;0.10;0.10;;;16.00;99.90;;;;;;5025555;28;20443;-71
2021/10/04 05:55:32;;;;;;;0.00;0.00;;;16.00;99.90;;;;;;5034320;28;20025;-71
2021/10/04 05:57:57;;;;;;;0.28;0.10;;;16.00;99.90;;;;;;5034443;28;20559;-72
2021/10/04 06:00:23;;;;;;;0.00;0.00;;;16.00;99.90;;;;;;5035624;28;20025;-71
2021/10/04 06:02:48;;;;;;;0.20;0.10;;;16.00;99.90;;;;;;5023873;28;20032;-72
2021/10/04 06:05:15;;;;;;;0.00;0.00;;;16.00;99.90;;;;;;5033639;28;20056;-73
2021/10/04 06:07:40;;;;;;;0.10;0.10;;;16.00;99.90;;;;;;5040493;28;20037;-72
2021/10/04 06:10:08;;;;;;;1.50;0.17;;;16.00;99.90;;;;;;5034278;28;20032;-72
2021/10/04 06:12:33;;;;;;;5.07;0.50;;;16.00;99.90;;;;;;5035265;28;20083;-72
2021/10/04 06:15:00;;;;;;;0.00;0.00;;;16.00;99.90;;;;;;5033342;28;20029;-72
2021/10/04 06:17:26;;;;;;;0.38;0.20;;;16.00;99.90;;;;;;5032816;28;20492;-71
2021/10/04 06:19:53;;;;;;;0.00;0.00;;;16.00;99.90;;;;;;5023986;28;20042;-71
2021/10/04 06:22:19;;;;;;;0.00;0.00;;;16.10;99.90;;;;;;5032536;28;20108;-72
2021/10/04 06:24:45;;;;;;;0.90;0.32;;;16.10;99.90;;;;;;5038541;28;20032;-72
2021/10/04 06:27:10;;;;;;;0.13;0.13;;;16.10;99.90;;;;;;5035385;28;20037;-72
2021/10/04 06:29:37;;;;;;;0.00;0.00;;;16.10;99.90;;;;;;5026355;28;20029;-72
2021/10/04 06:32:04;;;;;;;0.00;0.00;;;16.10;99.90;;;;;;5028703;28;20041;-71
2021/10/04 06:34:30;;;;;;;0.20;0.10;;;16.10;99.90;;;;;;5033996;28;20026;-73
2021/10/04 06:36:55;;;;;;;0.00;0.00;;;16.10;99.90;;;;;;5033729;28;20099;-73
2021/10/04 06:39:21;;;;;;;0.00;0.00;;;16.10;99.90;;;;;;5025813;28;20025;-72
2021/10/04 06:41:46;;;;;;;0.30;0.25;;;16.10;99.90;;;;;;5033102;28;20063;-73
2021/10/04 06:44:12;;;;;;;0.00;0.00;;;16.10;99.90;;;;;;5041774;28;20025;-75
2021/10/04 06:46:38;;;;;;;0.35;0.32;;;16.10;99.90;;;;;;5038322;28;20078;-76
2021/10/04 06:49:05;;;;;;;0.00;0.00;;;16.10;99.90;;;;;;5038994;28;20044;-76
2021/10/04 06:51:31;;;;;;;4.13;0.65;;;16.10;99.90;;;;;;5027029;28;20029;-74
2021/10/04 06:53:57;;;;;;;0.00;0.00;;;16.10;99.90;;;;;;5034900;28;20087;-74
2021/10/04 06:56:22;;;;;;;0.00;0.00;;;16.10;99.90;;;;;;5044075;28;20406;-76
2021/10/04 06:58:48;;;;;;;0.05;0.05;;;16.10;99.90;;;;;;5035740;28;20029;-74
2021/10/04 07:01:14;;;;;;;0.00;0.00;;;16.10;99.90;;;;;;5033311;28;20018;-74
2021/10/04 07:03:39;;;;;;;0.45;0.32;;;16.20;99.90;;;;;;5034172;28;20464;-74
2021/10/04 07:06:05;;;;;;;0.00;0.00;;;16.10;99.90;;;;;;5033170;28;20082;-73
2021/10/04 07:08:31;;;;;;;0.38;0.15;;;16.20;99.90;;;;;;5032105;28;20013;-72
2021/10/04 07:10:57;;;;;;;0.00;0.00;;;16.20;99.90;;;;;;5027520;28;20029;-72
2021/10/04 07:13:23;;;;;;;4.28;0.45;;;16.20;99.90;;;;;;5032752;28;20036;-72
2021/10/04 07:15:48;;;;;;;0.00;0.00;;;16.20;99.90;;;;;;5048537;28;20471;-72
2021/10/04 07:18:14;;;;;;;0.00;0.00;;;16.20;99.90;;;;;;5030308;28;20111;-72
2021/10/04 07:20:40;;;;;;;0.10;0.10;;;16.20;99.90;;;;;;5027118;28;20155;-72
2021/10/04 07:23:05;;;;;;;0.03;0.03;;;16.10;99.90;;;;;;5033139;28;20048;-72
2021/10/04 07:25:32;;;;;;;0.00;0.00;;;16.10;99.90;;;;;;5044473;28;20025;-72
2021/10/04 07:27:58;;;;;;;0.93;0.47;;;16.10;99.90;;;;;;5043510;28;20495;-72
2021/10/04 07:30:23;;;;;;;0.00;0.00;;;16.10;99.90;;;;;;5034673;28;20072;-72
2021/10/04 07:32:49;;;;;;;0.00;0.00;;;16.10;99.90;;;;;;5036846;28;20028;-73
2021/10/04 07:35:15;;;;;;;0.17;0.10;;;16.10;99.90;;;;;;5034016;28;20369;-72
2021/10/04 07:37:41;;;;;;;17.70;0.52;;;16.10;99.90;;;;;;5044745;28;20373;-72
2021/10/04 07:40:08;;;;;;;0.00;0.00;;;16.10;99.90;;;;;;5039436;28;20064;-72
2021/10/04 07:42:33;;;;;;;0.00;0.00;;;16.10;99.90;;;;;;5044844;28;20029;-71
2021/10/04 07:44:59;;;;;;;0.10;0.10;;;16.20;99.90;;;;;;5040043;28;20506;-72
2021/10/04 07:47:24;;;;;;;0.03;0.03;;;16.20;99.90;;;;;;5038743;28;20446;-72
2021/10/04 07:49:50;;;;;;;0.35;0.35;;;16.20;99.90;;;;;;5034476;28;20065;-72
2021/10/04 07:52:15;;;;;;;0.10;0.10;;;16.20;99.90;;;;;;5029092;28;20026;-72
2021/10/04 07:54:41;;;;;;;0.10;0.10;;;16.20;99.90;;;;;;5039394;28;20039;-72
2021/10/04 07:57:07;;;;;;;0.00;0.00;;;16.20;99.90;;;;;;5027079;28;20092;-72
2021/10/04 07:59:32;;;;;;;0.10;0.10;;;16.30;99.90;;;;;;5042579;28;20502;-72
2021/10/04 08:01:58;;;;;;;0.38;0.38;;;16.40;99.90;;;;;;5027248;28;20066;-72
2021/10/04 08:04:24;;;;;;;11.88;0.63;;;16.50;99.90;;;;;;5029987;28;20084;-72
2021/10/04 08:06:49;;;;;;;0.13;0.13;;;16.60;99.90;;;;;;5037291;28;20468;-71
2021/10/04 08:09:15;;;;;;;0.35;0.10;;;16.60;99.90;;;;;;5041934;28;20100;-72
2021/10/04 08:11:41;;;;;;;0.00;0.00;;;16.70;99.90;;;;;;5033360;28;20029;-72
2021/10/04 08:14:07;;;;;;;0.20;0.20;;;16.80;99.90;;;;;;5038751;28;20113;-71
2021/10/04 08:16:32;;;;;;;0.08;0.08;;;16.90;99.90;;;;;;5044003;28;20456;-72
2021/10/04 08:18:58;;;;;;;0.08;0.08;;;16.90;99.80;;;;;;5037586;28;20080;-71
2021/10/04 08:21:23;;;;;;;0.00;0.00;;;16.90;99.10;;;;;;5025233;28;20033;-71
2021/10/04 08:23:50;;;;;;;0.10;0.10;;;16.90;98.60;;;;;;5040522;28;20116;-72
2021/10/04 08:26:17;;;;;;;0.00;0.00;;;16.90;98.20;;;;;;5024366;28;20503;-71
2021/10/04 08:28:42;;;;;;;0.00;0.00;;;16.90;98.40;;;;;;5038236;28;20044;-71
2021/10/04 08:31:08;;;;;;;0.00;0.00;;;16.80;98.40;;;;;;5036069;28;20477;-72
2021/10/04 08:33:34;;;;;;;0.30;0.00;;;16.80;98.70;;;;;;5041944;28;20108;-71
2021/10/04 08:36:00;;;;;;;0.20;0.20;;;16.80;98.20;;;;;;5034432;28;20048;-71
2021/10/04 08:38:27;;;;;;;0.00;0.00;;;16.70;97.60;;;;;;5041381;28;20029;-72
2021/10/04 08:40:53;;;;;;;0.10;0.10;;;16.60;97.20;;;;;;5046236;28;20025;-72
2021/10/04 08:43:19;;;;;;;0.00;0.00;;;16.60;96.70;;;;;;5037228;28;20468;-71
2021/10/04 08:45:45;;;;;;;0.00;0.00;;;16.60;97.10;;;;;;5041949;28;20062;-72
2021/10/04 08:48:11;;;;;;;0.00;0.00;;;16.50;97.00;;;;;;5044225;28;20032;-72
2021/10/04 08:50:37;;;;;;;0.00;0.00;;;16.50;96.60;;;;;;5040821;28;20746;-72
2021/10/04 08:53:03;;;;;;;0.00;0.00;;;16.50;96.10;;;;;;5045765;28;20031;-72
2021/10/04 08:55:29;;;;;;;0.03;0.00;;;16.50;96.80;;;;;;5050056;28;20103;-72
2021/10/04 08:57:54;;;;;;;0.00;0.00;;;16.50;96.50;;;;;;5033560;28;20071;-72
2021/10/04 09:00:20;;;;;;;0.00;0.00;;;16.50;96.20;;;;;;5044644;28;20559;-72
2021/10/04 09:02:48;;;;;;;0.10;0.10;;;16.40;96.10;;;;;;5044782;28;20025;-72
2021/10/04 09:05:27;;;;;;;0.15;0.05;;;16.40;96.70;;;;;;5036336;28;20029;-72
2021/10/04 09:07:55;;;;;;;0.45;0.17;;;16.40;96.80;;;;;;5037896;28;20022;-72
2021/10/04 09:10:27;;;;;;;0.03;0.03;;;16.40;97.00;;;;;;5047576;28;20066;-71
2021/10/04 09:13:05;;;;;;;0.00;0.00;;;16.40;97.10;;;;;;5034971;28;20040;-72
2021/10/04 09:15:33;;;;;;;0.00;0.00;;;16.40;96.60;;;;;;5037297;28;20434;-72
2021/10/04 09:18:18;;;;;;;0.30;0.30;;;16.40;97.10;;;;;;5037566;28;20485;-72
2021/10/04 09:20:59;;;;;;;0.00;0.00;;;16.40;97.90;;;;;;5042666;28;20047;-72
2021/10/04 09:23:44;;;;;;;0.20;0.05;;;16.40;97.40;;;;;;5034651;28;20039;-71
2021/10/04 09:26:31;;;;;;;0.00;0.00;;;16.40;96.90;;;;;;5047084;28;20108;-71
2021/10/04 09:29:01;;;;;;;0.10;0.10;;;16.40;96.90;;;;;;5049123;28;20479;-71
2021/10/04 09:31:29;;;;;;;0.30;0.30;;;16.50;96.30;;;;;;5044604;28;20031;-71
2021/10/04 09:34:21;;;;;;;0.00;0.00;;;16.40;96.10;;;;;;5035676;28;20075;-71
2021/10/04 09:36:52;;;;;;;0.10;0.10;;;16.50;96.40;;;;;;5044613;28;20025;-71
2021/10/04 09:39:25;;;;;;;1.13;0.57;;;16.50;96.20;;;;;;5026496;28;20029;-71
2021/10/04 09:42:10;;;;;;;0.35;0.35;;;16.50;96.00;;;;;;5030539;28;20507;-71
2021/10/04 09:44:52;;;;;;;0.00;0.00;;;16.50;96.60;;;;;;5045092;28;20036;-72
2021/10/04 09:47:23;;;;;;;0.00;0.00;;;16.50;96.10;;;;;;5044557;28;20442;-71
2021/10/04 09:49:58;;;;;;;0.00;0.00;;;16.50;95.80;;;;;;5037533;28;20041;-71
2021/10/04 09:52:36;;;;;;;1.27;0.80;;;16.50;95.50;;;;;;5042705;28;20052;-72
2021/10/04 09:55:16;;;;;;;0.17;0.17;;;16.50;95.40;;;;;;5036857;28;20104;-72
2021/10/04 09:57:41;;;;;;;0.00;0.00;;;16.50;95.30;;;;;;5042588;28;20111;-72
2021/10/04 10:00:08;;;;;;;0.00;0.00;;;16.50;95.40;;;;;;5035377;28;20120;-72
2021/10/04 10:02:34;;;;;;;0.30;0.20;;;16.50;94.70;;;;;;5043611;28;20071;-71
2021/10/04 10:05:00;;;;;;;0.52;0.30;;;16.50;94.20;;;;;;5046733;28;20032;-72
2021/10/04 10:07:26;;;;;;;0.30;0.22;;;16.40;94.30;;;;;;5040466;28;20108;-72
2021/10/04 10:09:51;;;;;;;0.30;0.30;;;16.50;94.70;;;;;;5032862;28;20246;-71
2021/10/04 10:12:17;;;;;;;0.50;0.32;;;16.50;94.70;;;;;;5036264;28;20029;-70
2021/10/04 10:14:45;;;;;;;0.00;0.00;;;16.50;95.00;;;;;;5046657;28;20032;-71
2021/10/04 10:17:23;;;;;;;0.00;0.00;;;16.60;95.10;;;;;;5038104;28;20611;-71
2021/10/04 10:19:51;;;;;;;0.17;0.17;;;16.70;95.70;;;;;;5028557;28;20102;-70
2021/10/04 10:22:19;;;;;;;0.20;0.20;;;16.70;96.90;;;;;;5040707;28;20538;-71
2021/10/04 10:24:46;;;;;;;0.00;0.00;;;16.80;94.50;;;;;;5037431;28;20026;-71
2021/10/04 10:27:12;;;;;;;0.47;0.47;;;16.90;95.20;;;;;;5042774;28;21328;-70
2021/10/04 10:29:38;;;;;;;0.08;0.08;;;17.00;93.10;;;;;;5042978;28;20029;-71
2021/10/04 10:32:10;;;;;;;0.70;0.10;;;17.10;92.50;;;;;;5033803;28;20672;-71
2021/10/04 10:34:36;;;;;;;0.00;0.00;;;17.10;92.60;;;;;;5041253;28;20131;-71
2021/10/04 10:37:11;;;;;;;0.00;0.00;;;17.10;93.30;;;;;;5040291;28;20025;-71
2021/10/04 10:39:45;;;;;;;0.68;0.43;;;17.20;92.90;;;;;;5044877;28;20025;-70
2021/10/04 10:42:18;;;;;;;0.17;0.17;;;17.20;92.60;;;;;;5038574;28;20021;-71
2021/10/04 10:44:55;;;;;;;0.08;0.08;;;17.20;92.10;;;;;;5047801;28;20059;-70
2021/10/04 10:47:33;;;;;;;0.15;0.15;;;17.10;91.80;;;;;;5036229;28;20480;-71
2021/10/04 10:50:11;;;;;;;0.00;0.00;;;17.00;92.60;;;;;;5045818;28;20033;-70
2021/10/04 10:52:42;;;;;;;4.22;0.57;;;17.00;92.50;;;;;;5040914;28;20029;-70
2021/10/04 10:55:20;;;;;;;0.00;0.00;;;16.90;92.60;;;;;;5032356;28;20052;-70
2021/10/04 10:57:51;;;;;;;0.30;0.30;;;16.90;92.40;;;;;;5038783;28;20195;-70
2021/10/04 11:00:18;;;;;;;0.00;0.00;;;16.80;92.30;;;;;;5031658;28;20086;-71
2021/10/04 11:02:49;;;;;;;0.05;0.05;;;16.90;92.50;;;;;;5042599;28;20025;-70
2021/10/04 11:05:37;;;;;;;0.22;0.22;;;16.80;92.80;;;;;;5035210;28;20029;-73
2021/10/04 11:08:12;;;;;;;0.00;0.00;;;16.80;92.40;;;;;;5035073;28;20018;-71
2021/10/04 11:11:06;;;;;;;0.00;0.00;;;16.90;92.70;;;;;;5043458;28;20075;-71
2021/10/04 11:13:36;;;;;;;0.55;0.55;;;16.80;92.50;;;;;;5045116;28;20036;-71
2021/10/04 11:16:04;;;;;;;0.10;0.05;;;16.80;93.30;;;;;;5039059;28;20060;-71
2021/10/04 11:18:45;;;;;;;0.00;0.00;;;16.90;94.60;;;;;;5045984;28;20027;-71
2021/10/04 11:21:15;;;;;;;0.00;0.00;;;16.80;92.90;;;;;;5033954;28;20391;-71
2021/10/04 11:23:46;;;;;;;0.10;0.10;;;16.80;92.70;;;;;;5035949;28;20039;-71
2021/10/04 11:26:14;;;;;;;0.30;0.05;;;16.80;92.50;;;;;;5030236;28;20032;-70
2021/10/04 11:28:42;;;;;;;0.10;0.10;;;16.80;92.30;;;;;;5043353;28;20021;-71
2021/10/04 11:31:08;;;;;;;0.00;0.00;;;16.80;92.50;;;;;;5042019;28;20031;-71
2021/10/04 11:33:40;;;;;;;0.00;0.00;;;16.80;93.30;;;;;;5032145;28;20024;-71
2021/10/04 11:36:07;;;;;;;3.15;0.38;;;16.80;93.50;;;;;;5039138;28;20025;-71
2021/10/04 11:38:36;;;;;;;0.00;0.00;;;16.80;93.20;;;;;;5029987;28;20032;-71
2021/10/04 11:41:04;;;;;;;0.00;0.00;;;16.80;93.60;;;;;;5037467;28;20033;-70
2021/10/04 11:43:30;;;;;;;0.47;0.10;;;16.80;93.70;;;;;;5031510;28;20025;-71
2021/10/04 11:45:56;;;;;;;0.17;0.17;;;16.80;93.40;;;;;;5044693;28;20032;-71
2021/10/04 11:48:30;;;;;;;2.55;2.35;;;16.80;93.20;;;;;;5037071;28;20105;-71
2021/10/04 11:50:56;;;;;;;1.70;1.60;;;16.70;92.70;;;;;;5035735;28;20049;-70
2021/10/04 11:53:23;;;;;;;2.28;1.48;;;16.70;92.50;;;;;;5039925;28;20152;-71
2021/10/04 11:56:03;;;;;;;2.33;2.13;;;16.70;92.50;;;;;;5028195;28;20025;-70
2021/10/04 11:58:30;;;;;;;1.40;1.27;;;16.70;92.40;;;;;;5043181;28;20414;-70
2021/10/04 12:00:55;;;;;;;0.35;0.35;;;16.70;93.00;;;;;;5045408;28;20318;-71
2021/10/04 12:03:29;;;;;;;2.08;1.88;;;16.70;92.60;;;;;;5044411;28;20079;-71
2021/10/04 12:05:56;;;;;;;1.77;1.67;;;16.70;93.20;;;;;;5035419;28;20033;-70
2021/10/04 12:08:22;;;;;;;8.02;2.72;;;16.70;92.90;;;;;;5039870;28;20423;-71
2021/10/04 12:10:58;;;;;;;0.43;0.38;;;16.70;93.00;;;;;;5035045;28;20492;-70
2021/10/04 12:13:29;;;;;;;0.75;0.57;;;16.70;92.90;;;;;;5038613;28;20029;-71
2021/10/04 12:15:57;;;;;;;0.45;0.40;;;16.70;93.20;;;;;;5034474;28;20036;-71
2021/10/04 12:18:30;;;;;;;1.85;0.65;;;16.60;93.60;;;;;;5042615;28;20033;-70
2021/10/04 12:21:33;;;;;;;0.68;0.17;;;16.70;93.40;;;;;;5040831;28;20444;-71
2021/10/04 12:24:21;;;;;;;1.00;0.63;;;16.60;94.10;;;;;;5032316;28;20397;-70
2021/10/04 12:27:00;;;;;;;0.38;0.20;;;16.60;94.00;;;;;;5045982;28;20545;-70
2021/10/04 12:29:34;;;;;;;0.40;0.40;;;16.60;93.90;;;;;;5031783;28;20032;-70
2021/10/04 12:32:45;;;;;;;3.75;3.47;;;16.60;93.70;;;;;;5029200;28;20041;-71
2021/10/04 12:35:14;;;;;;;0.32;0.32;;;16.60;94.30;;;;;;5035925;28;20112;-70
2021/10/04 12:37:53;;;;;;;0.20;0.20;;;16.60;94.40;;;;;;5048114;28;20033;-71
2021/10/04 12:40:25;;;;;;;0.22;0.22;;;16.60;95.40;;;;;;5022475;28;20033;-72
2021/10/04 12:42:51;;;;;;;;;;;16.50;95.20;;;;;;5029655;28;20482;-72
2021/10/04 12:45:17;;;;;;;0.55;0.35;;;16.50;95.80;;;;;;5042495;28;20375;-72
2021/10/04 12:47:57;;;;;;;0.30;0.30;;;16.50;95.10;;;;;;5044284;28;20036;-72
2021/10/04 12:50:25;;;;;;;0.65;0.32;;;16.50;95.30;;;;;;5037878;28;20557;-72
2021/10/04 12:52:53;;;;;;;1.13;0.52;;;16.40;95.40;;;;;;5040254;28;20166;-73